Aérodrome :
LOGIN :

S'inscrire | Disclaimer

   EN    FR    IT 

 










Légende :    VFR   VFR Marginal   IFR   IFR Intensif   IFR Très Intensif
Visi : 
Plafond : 
>= 8 km
>= 3000ft
5 à 8 km
1000 à 3000 ft
1500m à 5 km
500 à 1000 ft
800 à 1500m
200 à 500 ft
< 800m
< 200 ft
Symboles :   Orages  Brouillard  Fortes neiges  Fortes précipitations  Vent > 20 kt
SIGMETs :   Divers  Orages  Givrage  Turbulence  Onde Orograph.  Cendres Volcan.







- Altitude de l'aérodrome : 479 ft
- Code IATA : DOL
- Voir les cartes d'approche


LFRG - Deauville

DERNIER METAR :
  • 301230Z AUTO 18010KT 130V220 9999 NSC 22/08 Q1020 NOSIG

METARs EXPIRÉS :
  • 301200Z AUTO 19009KT 140V220 9999 NSC 22/08 Q1020 NOSIG
  • 301130Z AUTO 18014KT 130V220 9999 NSC 20/07 Q1021 NOSIG
  • 301100Z AUTO 18010KT 150V220 9999 NSC 21/09 Q1021 NOSIG
  • 301030Z AUTO 18013KT 150V220 9999 NSC 20/07 Q1021 NOSIG
  • 301000Z AUTO 19010KT 160V220 9999 NSC 20/08 Q1022 NOSIG

TAF TAF LFRG
Valide du 30 à 12h jusqu'au 30 à 21h UTC


301100Z 3012/3021 18012KT CAVOK
ATIS : +33 2 31 65 65 36
Pas de NOTAMs connus pour ce terrain.



MET'MAP, la Météo Aéronautique d'un coup d'oeil ! - Copyright ORBIFLY Décembre 2007 - Disclaimer

ORBIFLY MET'MAP TEAM :

Programmation & Développement : Alexandra Zaïnal
Conception & Développement : Baudouin d'Aumeries
Co-Programmation & Développement : Marc-Olivier Méhu
Soutien technique & logistique : Manuel Goepfert

Contact : metmap@orbifly.com




SOURCES & CREDITS :

   NOAA